sensor_id;sensor_type;location;lat;lon;timestamp;temperature;humidity
24226;DHT22;51462;51.422;5.514;2023-03-11T00:00:34;1.90;99.90
24226;DHT22;51462;51.422;5.514;2023-03-11T00:03:02;2.00;99.90
24226;DHT22;51462;51.422;5.514;2023-03-11T00:05:31;2.00;99.90
24226;DHT22;51462;51.422;5.514;2023-03-11T00:07:58;2.00;99.90
24226;DHT22;51462;51.422;5.514;2023-03-11T00:10:30;1.70;99.90
24226;DHT22;51462;51.422;5.514;2023-03-11T00:12:56;1.80;99.90
24226;DHT22;51462;51.422;5.514;2023-03-11T00:15:22;1.60;99.90
24226;DHT22;51462;51.422;5.514;2023-03-11T00:17:48;1.70;99.90
24226;DHT22;51462;51.422;5.514;2023-03-11T00:20:21;1.70;99.90
24226;DHT22;51462;51.422;5.514;2023-03-11T00:22:47;1.70;99.90
24226;DHT22;51462;51.422;5.514;2023-03-11T00:25:13;1.70;99.90
24226;DHT22;51462;51.422;5.514;2023-03-11T00:27:39;1.50;99.90
24226;DHT22;51462;51.422;5.514;2023-03-11T00:30:05;1.50;99.90
24226;DHT22;51462;51.422;5.514;2023-03-11T00:32:31;1.30;99.90
24226;DHT22;51462;51.422;5.514;2023-03-11T00:34:57;1.50;99.90
24226;DHT22;51462;51.422;5.514;2023-03-11T00:37:22;1.70;99.90
24226;DHT22;51462;51.422;5.514;2023-03-11T00:39:48;1.50;99.90
24226;DHT22;51462;51.422;5.514;2023-03-11T00:42:14;1.40;99.90
24226;DHT22;51462;51.422;5.514;2023-03-11T00:44:39;1.30;99.90
24226;DHT22;51462;51.422;5.514;2023-03-11T00:47:05;1.20;99.90
24226;DHT22;51462;51.422;5.514;2023-03-11T00:49:31;1.40;99.90
24226;DHT22;51462;51.422;5.514;2023-03-11T00:51:57;1.40;99.90
24226;DHT22;51462;51.422;5.514;2023-03-11T00:54:22;1.10;99.90
24226;DHT22;51462;51.422;5.514;2023-03-11T00:56:48;1.10;99.90
24226;DHT22;51462;51.422;5.514;2023-03-11T00:59:13;1.10;99.90
24226;DHT22;51462;51.422;5.514;2023-03-11T01:01:39;1.10;99.90
24226;DHT22;51462;51.422;5.514;2023-03-11T01:04:05;1.20;99.90
24226;DHT22;51462;51.422;5.514;2023-03-11T01:06:30;1.10;99.90
24226;DHT22;51462;51.422;5.514;2023-03-11T01:08:56;1.20;99.90
24226;DHT22;51462;51.422;5.514;2023-03-11T01:11:21;1.10;99.90
24226;DHT22;51462;51.422;5.514;2023-03-11T01:13:47;1.00;99.90
24226;DHT22;51462;51.422;5.514;2023-03-11T01:16:12;1.10;99.90
24226;DHT22;51462;51.422;5.514;2023-03-11T01:18:38;1.30;99.90
24226;DHT22;51462;51.422;5.514;2023-03-11T01:21:04;1.20;99.90
24226;DHT22;51462;51.422;5.514;2023-03-11T01:23:29;1.20;99.90
24226;DHT22;51462;51.422;5.514;2023-03-11T01:25:57;1.20;99.90
24226;DHT22;51462;51.422;5.514;2023-03-11T01:28:22;1.20;99.90
24226;DHT22;51462;51.422;5.514;2023-03-11T01:30:48;1.00;99.90
24226;DHT22;51462;51.422;5.514;2023-03-11T01:33:16;1.10;99.90
24226;DHT22;51462;51.422;5.514;2023-03-11T01:35:42;1.10;99.90
24226;DHT22;51462;51.422;5.514;2023-03-11T01:38:08;0.90;99.90
24226;DHT22;51462;51.422;5.514;2023-03-11T01:43:02;1.10;99.90
24226;DHT22;51462;51.422;5.514;2023-03-11T01:47:53;1.10;99.90
24226;DHT22;51462;51.422;5.514;2023-03-11T01:50:19;1.10;99.90
24226;DHT22;51462;51.422;5.514;2023-03-11T01:52:46;1.00;99.90
24226;DHT22;51462;51.422;5.514;2023-03-11T01:55:13;0.90;99.90
24226;DHT22;51462;51.422;5.514;2023-03-11T01:57:40;0.90;99.90
24226;DHT22;51462;51.422;5.514;2023-03-11T02:00:09;0.90;99.90
24226;DHT22;51462;51.422;5.514;2023-03-11T02:02:40;0.90;99.90
24226;DHT22;51462;51.422;5.514;2023-03-11T02:05:07;0.90;99.90
24226;DHT22;51462;51.422;5.514;2023-03-11T02:07:33;1.10;99.90
24226;DHT22;51462;51.422;5.514;2023-03-11T02:09:59;1.00;99.90
24226;DHT22;51462;51.422;5.514;2023-03-11T02:12:28;1.00;99.90
24226;DHT22;51462;51.422;5.514;2023-03-11T02:14:55;1.10;99.90
24226;DHT22;51462;51.422;5.514;2023-03-11T02:17:21;1.00;99.90
24226;DHT22;51462;51.422;5.514;2023-03-11T02:22:37;0.80;99.90
24226;DHT22;51462;51.422;5.514;2023-03-11T02:27:33;0.90;99.90
24226;DHT22;51462;51.422;5.514;2023-03-11T02:30:02;1.00;99.90
24226;DHT22;51462;51.422;5.514;2023-03-11T02:32:28;0.90;99.90
24226;DHT22;51462;51.422;5.514;2023-03-11T02:34:54;0.90;99.90
24226;DHT22;51462;51.422;5.514;2023-03-11T02:37:20;0.80;99.90
24226;DHT22;51462;51.422;5.514;2023-03-11T02:39:48;0.80;99.90
24226;DHT22;51462;51.422;5.514;2023-03-11T02:44:45;0.80;99.90
24226;DHT22;51462;51.422;5.514;2023-03-11T02:47:11;0.90;99.90
24226;DHT22;51462;51.422;5.514;2023-03-11T02:49:37;0.80;99.90
24226;DHT22;51462;51.422;5.514;2023-03-11T02:52:03;0.90;99.90
24226;DHT22;51462;51.422;5.514;2023-03-11T02:54:29;0.90;99.90
24226;DHT22;51462;51.422;5.514;2023-03-11T02:56:55;1.00;99.90
24226;DHT22;51462;51.422;5.514;2023-03-11T02:59:20;0.70;99.90
24226;DHT22;51462;51.422;5.514;2023-03-11T03:01:46;0.70;99.90
24226;DHT22;51462;51.422;5.514;2023-03-11T03:04:12;0.70;99.90
24226;DHT22;51462;51.422;5.514;2023-03-11T03:06:37;0.70;99.90
24226;DHT22;51462;51.422;5.514;2023-03-11T03:09:03;0.60;99.90
24226;DHT22;51462;51.422;5.514;2023-03-11T03:11:29;0.60;99.90
24226;DHT22;51462;51.422;5.514;2023-03-11T03:13:54;0.50;99.90
24226;DHT22;51462;51.422;5.514;2023-03-11T03:16:20;0.60;99.90
24226;DHT22;51462;51.422;5.514;2023-03-11T03:18:46;0.50;99.90
24226;DHT22;51462;51.422;5.514;2023-03-11T03:21:12;0.40;99.90
24226;DHT22;51462;51.422;5.514;2023-03-11T03:23:37;0.50;99.90
24226;DHT22;51462;51.422;5.514;2023-03-11T03:26:04;0.40;99.90
24226;DHT22;51462;51.422;5.514;2023-03-11T03:28:30;0.40;99.90
24226;DHT22;51462;51.422;5.514;2023-03-11T03:31:02;0.30;99.90
24226;DHT22;51462;51.422;5.514;2023-03-11T03:33:28;0.30;99.90
24226;DHT22;51462;51.422;5.514;2023-03-11T03:35:53;0.20;99.90
24226;DHT22;51462;51.422;5.514;2023-03-11T03:38:19;0.40;99.90
24226;DHT22;51462;51.422;5.514;2023-03-11T03:40:46;0.30;99.90
24226;DHT22;51462;51.422;5.514;2023-03-11T03:43:12;0.30;99.90
24226;DHT22;51462;51.422;5.514;2023-03-11T03:45:37;0.20;99.90
24226;DHT22;51462;51.422;5.514;2023-03-11T03:48:03;0.40;99.90
24226;DHT22;51462;51.422;5.514;2023-03-11T03:50:29;0.40;99.90
24226;DHT22;51462;51.422;5.514;2023-03-11T03:52:54;0.30;99.90
24226;DHT22;51462;51.422;5.514;2023-03-11T03:55:20;0.30;99.90
24226;DHT22;51462;51.422;5.514;2023-03-11T03:57:45;0.40;99.90
24226;DHT22;51462;51.422;5.514;2023-03-11T04:00:11;0.20;99.90
24226;DHT22;51462;51.422;5.514;2023-03-11T04:02:37;0.30;99.90
24226;DHT22;51462;51.422;5.514;2023-03-11T04:05:03;0.30;99.90
24226;DHT22;51462;51.422;5.514;2023-03-11T04:07:29;0.20;99.90
24226;DHT22;51462;51.422;5.514;2023-03-11T04:09:54;0.10;99.90
24226;DHT22;51462;51.422;5.514;2023-03-11T04:12:20;0.20;99.90
24226;DHT22;51462;51.422;5.514;2023-03-11T04:14:45;0.10;99.90
24226;DHT22;51462;51.422;5.514;2023-03-11T04:17:12;0.10;99.90
24226;DHT22;51462;51.422;5.514;2023-03-11T04:19:38;0.20;99.90
24226;DHT22;51462;51.422;5.514;2023-03-11T04:22:04;0.10;99.90
24226;DHT22;51462;51.422;5.514;2023-03-11T04:24:30;0.10;99.90
24226;DHT22;51462;51.422;5.514;2023-03-11T04:26:55;0.10;99.90
24226;DHT22;51462;51.422;5.514;2023-03-11T04:29:21;0.20;99.90
24226;DHT22;51462;51.422;5.514;2023-03-11T04:31:47;0.10;99.90
24226;DHT22;51462;51.422;5.514;2023-03-11T04:34:12;0.00;99.90
24226;DHT22;51462;51.422;5.514;2023-03-11T04:36:38;0.10;99.90
24226;DHT22;51462;51.422;5.514;2023-03-11T04:39:03;0.00;99.90
24226;DHT22;51462;51.422;5.514;2023-03-11T04:41:29;0.10;99.90
24226;DHT22;51462;51.422;5.514;2023-03-11T04:43:55;0.10;99.90
24226;DHT22;51462;51.422;5.514;2023-03-11T04:46:20;0.20;99.90
24226;DHT22;51462;51.422;5.514;2023-03-11T04:48:46;0.20;99.90
24226;DHT22;51462;51.422;5.514;2023-03-11T04:51:11;0.20;99.90
24226;DHT22;51462;51.422;5.514;2023-03-11T04:53:37;0.10;99.90
24226;DHT22;51462;51.422;5.514;2023-03-11T04:56:03;0.00;99.90
24226;DHT22;51462;51.422;5.514;2023-03-11T04:58:28;0.00;99.90
24226;DHT22;51462;51.422;5.514;2023-03-11T05:00:54;0.00;99.90
24226;DHT22;51462;51.422;5.514;2023-03-11T05:03:20;0.00;99.90
24226;DHT22;51462;51.422;5.514;2023-03-11T05:05:46;0.00;99.90
24226;DHT22;51462;51.422;5.514;2023-03-11T05:08:12;0.10;99.90
24226;DHT22;51462;51.422;5.514;2023-03-11T05:10:39;0.10;99.90
24226;DHT22;51462;51.422;5.514;2023-03-11T05:13:06;0.00;99.90
24226;DHT22;51462;51.422;5.514;2023-03-11T05:15:32;0.00;99.90
24226;DHT22;51462;51.422;5.514;2023-03-11T05:17:57;-0.10;99.90
24226;DHT22;51462;51.422;5.514;2023-03-11T05:20:23;0.00;99.90
24226;DHT22;51462;51.422;5.514;2023-03-11T05:22:48;-0.20;99.90
24226;DHT22;51462;51.422;5.514;2023-03-11T05:25:14;-0.30;99.90
24226;DHT22;51462;51.422;5.514;2023-03-11T05:27:40;-0.30;99.90
24226;DHT22;51462;51.422;5.514;2023-03-11T05:30:06;-0.30;99.90
24226;DHT22;51462;51.422;5.514;2023-03-11T05:32:32;-0.20;99.90
24226;DHT22;51462;51.422;5.514;2023-03-11T05:34:57;-0.20;99.90
24226;DHT22;51462;51.422;5.514;2023-03-11T05:37:23;-0.20;99.90
24226;DHT22;51462;51.422;5.514;2023-03-11T05:39:50;-0.20;99.90
24226;DHT22;51462;51.422;5.514;2023-03-11T05:42:15;-0.20;99.90
24226;DHT22;51462;51.422;5.514;2023-03-11T05:44:41;-0.20;99.90
24226;DHT22;51462;51.422;5.514;2023-03-11T05:47:07;-0.20;99.90
24226;DHT22;51462;51.422;5.514;2023-03-11T05:49:32;-0.20;99.90
24226;DHT22;51462;51.422;5.514;2023-03-11T05:51:58;-0.20;99.90
24226;DHT22;51462;51.422;5.514;2023-03-11T05:54:23;-0.20;99.90
24226;DHT22;51462;51.422;5.514;2023-03-11T05:56:49;-0.20;99.90
24226;DHT22;51462;51.422;5.514;2023-03-11T05:59:15;-0.20;99.90
24226;DHT22;51462;51.422;5.514;2023-03-11T06:01:42;-0.20;99.90
24226;DHT22;51462;51.422;5.514;2023-03-11T06:04:08;-0.10;99.90
24226;DHT22;51462;51.422;5.514;2023-03-11T06:06:34;-0.20;99.90
24226;DHT22;51462;51.422;5.514;2023-03-11T06:08:59;-0.20;99.90
24226;DHT22;51462;51.422;5.514;2023-03-11T06:11:26;-0.10;99.90
24226;DHT22;51462;51.422;5.514;2023-03-11T06:13:56;-0.10;99.90
24226;DHT22;51462;51.422;5.514;2023-03-11T06:16:23;-0.20;99.90
24226;DHT22;51462;51.422;5.514;2023-03-11T06:18:49;-0.20;99.90
24226;DHT22;51462;51.422;5.514;2023-03-11T06:21:17;-0.20;99.90
24226;DHT22;51462;51.422;5.514;2023-03-11T06:23:44;-0.20;99.90
24226;DHT22;51462;51.422;5.514;2023-03-11T06:26:13;-0.30;99.90
24226;DHT22;51462;51.422;5.514;2023-03-11T06:28:41;-0.20;99.90
24226;DHT22;51462;51.422;5.514;2023-03-11T06:31:13;-0.10;99.90
24226;DHT22;51462;51.422;5.514;2023-03-11T06:33:39;-0.30;99.90
24226;DHT22;51462;51.422;5.514;2023-03-11T06:36:06;-0.20;99.90
24226;DHT22;51462;51.422;5.514;2023-03-11T06:38:33;-0.20;99.90
24226;DHT22;51462;51.422;5.514;2023-03-11T06:40:59;-0.20;99.90
24226;DHT22;51462;51.422;5.514;2023-03-11T06:43:25;-0.20;99.90
24226;DHT22;51462;51.422;5.514;2023-03-11T06:45:51;-0.30;99.90
24226;DHT22;51462;51.422;5.514;2023-03-11T06:48:17;-0.40;99.90
24226;DHT22;51462;51.422;5.514;2023-03-11T06:50:42;-0.30;99.90
24226;DHT22;51462;51.422;5.514;2023-03-11T06:53:08;-0.10;99.90
24226;DHT22;51462;51.422;5.514;2023-03-11T06:55:34;-0.10;99.90
24226;DHT22;51462;51.422;5.514;2023-03-11T06:58:00;-0.10;99.90
24226;DHT22;51462;51.422;5.514;2023-03-11T07:00:26;-0.20;99.90
24226;DHT22;51462;51.422;5.514;2023-03-11T07:02:51;0.00;99.90
24226;DHT22;51462;51.422;5.514;2023-03-11T07:05:17;0.00;99.90
24226;DHT22;51462;51.422;5.514;2023-03-11T07:07:42;0.00;99.90
24226;DHT22;51462;51.422;5.514;2023-03-11T07:10:08;0.10;99.90
24226;DHT22;51462;51.422;5.514;2023-03-11T07:12:35;0.10;99.90
24226;DHT22;51462;51.422;5.514;2023-03-11T07:15:00;0.00;99.90
24226;DHT22;51462;51.422;5.514;2023-03-11T07:17:26;0.10;99.90
24226;DHT22;51462;51.422;5.514;2023-03-11T07:19:52;0.10;99.90
24226;DHT22;51462;51.422;5.514;2023-03-11T07:22:18;0.20;99.90
24226;DHT22;51462;51.422;5.514;2023-03-11T07:24:45;0.30;99.90
24226;DHT22;51462;51.422;5.514;2023-03-11T07:27:11;0.40;99.90
24226;DHT22;51462;51.422;5.514;2023-03-11T07:29:37;0.40;99.90
24226;DHT22;51462;51.422;5.514;2023-03-11T07:32:03;0.50;99.90
24226;DHT22;51462;51.422;5.514;2023-03-11T07:34:29;0.40;99.90
24226;DHT22;51462;51.422;5.514;2023-03-11T07:36:54;0.50;99.90
24226;DHT22;51462;51.422;5.514;2023-03-11T07:39:20;0.50;99.90
24226;DHT22;51462;51.422;5.514;2023-03-11T07:41:46;0.50;99.90
24226;DHT22;51462;51.422;5.514;2023-03-11T07:44:13;0.50;99.90
24226;DHT22;51462;51.422;5.514;2023-03-11T07:46:39;0.60;99.90
24226;DHT22;51462;51.422;5.514;2023-03-11T07:49:04;0.70;99.90
24226;DHT22;51462;51.422;5.514;2023-03-11T07:51:32;0.70;99.90
24226;DHT22;51462;51.422;5.514;2023-03-11T07:53:59;0.80;99.90
24226;DHT22;51462;51.422;5.514;2023-03-11T07:56:28;0.70;99.90
24226;DHT22;51462;51.422;5.514;2023-03-11T07:58:53;0.80;99.90
24226;DHT22;51462;51.422;5.514;2023-03-11T08:01:22;0.90;99.90
24226;DHT22;51462;51.422;5.514;2023-03-11T08:03:50;0.80;99.90
24226;DHT22;51462;51.422;5.514;2023-03-11T08:06:24;1.00;99.90
24226;DHT22;51462;51.422;5.514;2023-03-11T08:08:50;1.00;99.90
24226;DHT22;51462;51.422;5.514;2023-03-11T08:11:16;1.00;99.90
24226;DHT22;51462;51.422;5.514;2023-03-11T08:13:44;1.10;99.90
24226;DHT22;51462;51.422;5.514;2023-03-11T08:16:12;1.10;99.90
24226;DHT22;51462;51.422;5.514;2023-03-11T08:18:38;1.20;99.90
24226;DHT22;51462;51.422;5.514;2023-03-11T08:21:06;1.20;99.90
24226;DHT22;51462;51.422;5.514;2023-03-11T08:23:32;1.20;99.90
24226;DHT22;51462;51.422;5.514;2023-03-11T08:26:01;1.30;99.90
24226;DHT22;51462;51.422;5.514;2023-03-11T08:28:26;1.40;99.90
24226;DHT22;51462;51.422;5.514;2023-03-11T08:30:52;1.40;99.90
24226;DHT22;51462;51.422;5.514;2023-03-11T08:33:17;1.50;99.90
24226;DHT22;51462;51.422;5.514;2023-03-11T08:35:43;1.50;99.90
24226;DHT22;51462;51.422;5.514;2023-03-11T08:38:08;1.70;99.90
24226;DHT22;51462;51.422;5.514;2023-03-11T08:40:34;1.70;99.90
24226;DHT22;51462;51.422;5.514;2023-03-11T08:43:00;1.80;99.90
24226;DHT22;51462;51.422;5.514;2023-03-11T08:45:25;1.90;99.90
24226;DHT22;51462;51.422;5.514;2023-03-11T08:47:51;1.80;99.90
24226;DHT22;51462;51.422;5.514;2023-03-11T08:50:17;1.90;99.90
24226;DHT22;51462;51.422;5.514;2023-03-11T08:52:44;2.00;99.90
24226;DHT22;51462;51.422;5.514;2023-03-11T08:55:13;2.10;99.90
24226;DHT22;51462;51.422;5.514;2023-03-11T08:57:40;2.20;99.90
24226;DHT22;51462;51.422;5.514;2023-03-11T09:00:07;2.20;99.90
24226;DHT22;51462;51.422;5.514;2023-03-11T09:02:33;2.20;99.90
24226;DHT22;51462;51.422;5.514;2023-03-11T09:04:59;2.30;99.90
24226;DHT22;51462;51.422;5.514;2023-03-11T09:07:24;2.30;99.90
24226;DHT22;51462;51.422;5.514;2023-03-11T09:09:50;2.40;99.90
24226;DHT22;51462;51.422;5.514;2023-03-11T09:12:15;2.50;99.90
24226;DHT22;51462;51.422;5.514;2023-03-11T09:14:42;2.50;99.90
24226;DHT22;51462;51.422;5.514;2023-03-11T09:17:08;2.60;99.90
24226;DHT22;51462;51.422;5.514;2023-03-11T09:19:34;2.50;99.90
24226;DHT22;51462;51.422;5.514;2023-03-11T09:22:01;3.40;99.90
24226;DHT22;51462;51.422;5.514;2023-03-11T09:24:27;3.70;99.90
24226;DHT22;51462;51.422;5.514;2023-03-11T09:26:52;3.40;99.90
24226;DHT22;51462;51.422;5.514;2023-03-11T09:29:18;3.10;99.90
24226;DHT22;51462;51.422;5.514;2023-03-11T09:31:44;3.20;99.90
24226;DHT22;51462;51.422;5.514;2023-03-11T09:34:11;3.10;99.90
24226;DHT22;51462;51.422;5.514;2023-03-11T09:36:40;4.20;99.90
24226;DHT22;51462;51.422;5.514;2023-03-11T09:39:06;4.10;99.90
24226;DHT22;51462;51.422;5.514;2023-03-11T09:44:36;3.70;99.90
24226;DHT22;51462;51.422;5.514;2023-03-11T09:52:59;3.80;99.90
24226;DHT22;51462;51.422;5.514;2023-03-11T09:55:43;3.90;99.90
24226;DHT22;51462;51.422;5.514;2023-03-11T09:58:36;4.00;99.90
24226;DHT22;51462;51.422;5.514;2023-03-11T10:01:13;4.60;99.90
24226;DHT22;51462;51.422;5.514;2023-03-11T10:03:39;4.40;99.90
24226;DHT22;51462;51.422;5.514;2023-03-11T10:06:13;4.30;99.90
24226;DHT22;51462;51.422;5.514;2023-03-11T10:27:54;4.80;99.90
24226;DHT22;51462;51.422;5.514;2023-03-11T10:33:51;4.80;99.90
24226;DHT22;51462;51.422;5.514;2023-03-11T10:36:22;5.00;99.90
24226;DHT22;51462;51.422;5.514;2023-03-11T10:38:50;5.20;99.90
24226;DHT22;51462;51.422;5.514;2023-03-11T10:41:25;5.00;99.90
24226;DHT22;51462;51.422;5.514;2023-03-11T10:44:03;4.90;99.90
24226;DHT22;51462;51.422;5.514;2023-03-11T10:46:30;4.90;99.90
24226;DHT22;51462;51.422;5.514;2023-03-11T10:48:56;5.10;99.90
24226;DHT22;51462;51.422;5.514;2023-03-11T10:51:33;5.30;99.90
24226;DHT22;51462;51.422;5.514;2023-03-11T10:54:00;5.20;99.90
24226;DHT22;51462;51.422;5.514;2023-03-11T10:59:00;5.30;99.90
24226;DHT22;51462;51.422;5.514;2023-03-11T11:01:26;5.30;99.90
24226;DHT22;51462;51.422;5.514;2023-03-11T11:03:55;5.30;99.90
24226;DHT22;51462;51.422;5.514;2023-03-11T11:06:33;5.30;99.90
24226;DHT22;51462;51.422;5.514;2023-03-11T11:09:25;5.60;99.90
24226;DHT22;51462;51.422;5.514;2023-03-11T11:12:05;5.70;99.90
24226;DHT22;51462;51.422;5.514;2023-03-11T11:14:46;5.70;99.90
24226;DHT22;51462;51.422;5.514;2023-03-11T11:17:31;6.00;99.90
24226;DHT22;51462;51.422;5.514;2023-03-11T11:19:59;5.90;99.90
24226;DHT22;51462;51.422;5.514;2023-03-11T11:22:27;5.70;99.90
24226;DHT22;51462;51.422;5.514;2023-03-11T11:24:54;5.90;99.90
24226;DHT22;51462;51.422;5.514;2023-03-11T11:32:32;6.00;99.90
24226;DHT22;51462;51.422;5.514;2023-03-11T11:35:00;6.50;99.90
24226;DHT22;51462;51.422;5.514;2023-03-11T11:37:28;6.30;99.90
24226;DHT22;51462;51.422;5.514;2023-03-11T11:40:29;6.60;99.90
24226;DHT22;51462;51.422;5.514;2023-03-11T11:45:39;6.40;99.90
24226;DHT22;51462;51.422;5.514;2023-03-11T11:50:51;6.90;99.90
24226;DHT22;51462;51.422;5.514;2023-03-11T11:55:48;6.80;99.90
24226;DHT22;51462;51.422;5.514;2023-03-11T11:58:14;6.90;99.90
24226;DHT22;51462;51.422;5.514;2023-03-11T12:09:38;7.70;99.90
24226;DHT22;51462;51.422;5.514;2023-03-11T12:17:38;8.00;99.90
24226;DHT22;51462;51.422;5.514;2023-03-11T12:20:26;8.20;99.90
24226;DHT22;51462;51.422;5.514;2023-03-11T12:23:17;8.20;99.90
24226;DHT22;51462;51.422;5.514;2023-03-11T12:28:45;8.30;99.90
24226;DHT22;51462;51.422;5.514;2023-03-11T12:31:12;8.20;99.90
24226;DHT22;51462;51.422;5.514;2023-03-11T12:33:42;8.50;99.90
24226;DHT22;51462;51.422;5.514;2023-03-11T12:36:28;8.50;99.90
24226;DHT22;51462;51.422;5.514;2023-03-11T12:38:54;8.70;99.90
24226;DHT22;51462;51.422;5.514;2023-03-11T12:41:27;9.00;99.90
24226;DHT22;51462;51.422;5.514;2023-03-11T12:49:23;9.70;99.90
24226;DHT22;51462;51.422;5.514;2023-03-11T12:59:58;10.00;99.90
24226;DHT22;51462;51.422;5.514;2023-03-11T13:06:21;10.20;99.90
24226;DHT22;51462;51.422;5.514;2023-03-11T13:08:19;10.00;99.90
24226;DHT22;51462;51.422;5.514;2023-03-11T13:10:50;9.70;99.90
24226;DHT22;51462;51.422;5.514;2023-03-11T13:18:38;11.40;99.90
24226;DHT22;51462;51.422;5.514;2023-03-11T13:21:05;11.00;99.90
24226;DHT22;51462;51.422;5.514;2023-03-11T13:23:50;10.90;99.90
24226;DHT22;51462;51.422;5.514;2023-03-11T13:26:24;11.40;99.90
24226;DHT22;51462;51.422;5.514;2023-03-11T13:29:13;11.50;99.90
24226;DHT22;51462;51.422;5.514;2023-03-11T13:40:21;11.10;99.90
24226;DHT22;51462;51.422;5.514;2023-03-11T13:42:56;11.20;99.90
24226;DHT22;51462;51.422;5.514;2023-03-11T13:45:31;10.90;99.10
24226;DHT22;51462;51.422;5.514;2023-03-11T13:48:06;10.70;99.80
24226;DHT22;51462;51.422;5.514;2023-03-11T13:50:39;11.10;99.90
24226;DHT22;51462;51.422;5.514;2023-03-11T13:53:24;11.60;99.90
24226;DHT22;51462;51.422;5.514;2023-03-11T13:55:53;12.20;99.90
24226;DHT22;51462;51.422;5.514;2023-03-11T13:58:21;11.90;99.90
24226;DHT22;51462;51.422;5.514;2023-03-11T14:00:53;12.50;99.90
24226;DHT22;51462;51.422;5.514;2023-03-11T14:03:19;12.60;99.90
24226;DHT22;51462;51.422;5.514;2023-03-11T14:05:49;12.60;99.90
24226;DHT22;51462;51.422;5.514;2023-03-11T14:08:30;12.80;99.90
24226;DHT22;51462;51.422;5.514;2023-03-11T14:13:47;13.10;98.70
24226;DHT22;51462;51.422;5.514;2023-03-11T14:18:41;14.50;99.90
24226;DHT22;51462;51.422;5.514;2023-03-11T14:21:14;14.80;94.90
24226;DHT22;51462;51.422;5.514;2023-03-11T14:23:42;14.30;96.20
24226;DHT22;51462;51.422;5.514;2023-03-11T14:26:14;14.70;94.30
24226;DHT22;51462;51.422;5.514;2023-03-11T14:28:44;14.30;95.20
24226;DHT22;51462;51.422;5.514;2023-03-11T14:34:02;15.80;98.90
24226;DHT22;51462;51.422;5.514;2023-03-11T14:36:29;15.60;93.60
24226;DHT22;51462;51.422;5.514;2023-03-11T14:38:55;15.60;91.20
24226;DHT22;51462;51.422;5.514;2023-03-11T14:41:21;15.70;80.80
24226;DHT22;51462;51.422;5.514;2023-03-11T14:43:49;15.70;80.30
24226;DHT22;51462;51.422;5.514;2023-03-11T14:46:22;15.60;80.30
24226;DHT22;51462;51.422;5.514;2023-03-11T14:48:49;15.80;77.30
24226;DHT22;51462;51.422;5.514;2023-03-11T14:51:19;16.20;75.50
24226;DHT22;51462;51.422;5.514;2023-03-11T14:53:56;17.60;82.90
24226;DHT22;51462;51.422;5.514;2023-03-11T14:56:27;17.50;70.00
24226;DHT22;51462;51.422;5.514;2023-03-11T14:59:01;17.60;71.90
24226;DHT22;51462;51.422;5.514;2023-03-11T15:01:34;18.40;70.90
24226;DHT22;51462;51.422;5.514;2023-03-11T15:06:48;17.30;68.80
24226;DHT22;51462;51.422;5.514;2023-03-11T15:09:17;17.10;77.80
24226;DHT22;51462;51.422;5.514;2023-03-11T15:14:27;18.00;82.80
24226;DHT22;51462;51.422;5.514;2023-03-11T15:17:17;18.50;77.20
24226;DHT22;51462;51.422;5.514;2023-03-11T15:19:43;18.10;86.40
24226;DHT22;51462;51.422;5.514;2023-03-11T15:24:51;15.70;72.20
24226;DHT22;51462;51.422;5.514;2023-03-11T15:27:29;15.30;78.60
24226;DHT22;51462;51.422;5.514;2023-03-11T15:29:56;15.10;79.30
24226;DHT22;51462;51.422;5.514;2023-03-11T15:32:39;14.60;77.10
24226;DHT22;51462;51.422;5.514;2023-03-11T15:37:38;16.20;83.90
24226;DHT22;51462;51.422;5.514;2023-03-11T15:40:26;16.70;74.80
24226;DHT22;51462;51.422;5.514;2023-03-11T15:45:40;14.80;78.60
24226;DHT22;51462;51.422;5.514;2023-03-11T15:48:07;14.40;79.30
24226;DHT22;51462;51.422;5.514;2023-03-11T15:50:34;13.80;80.10
24226;DHT22;51462;51.422;5.514;2023-03-11T15:52:59;12.90;79.30
24226;DHT22;51462;51.422;5.514;2023-03-11T15:55:26;13.30;92.90
24226;DHT22;51462;51.422;5.514;2023-03-11T15:57:59;13.00;81.00
24226;DHT22;51462;51.422;5.514;2023-03-11T16:00:26;14.20;91.10
24226;DHT22;51462;51.422;5.514;2023-03-11T16:02:51;14.70;88.70
24226;DHT22;51462;51.422;5.514;2023-03-11T16:05:21;13.90;81.50
24226;DHT22;51462;51.422;5.514;2023-03-11T16:07:47;13.90;92.80
24226;DHT22;51462;51.422;5.514;2023-03-11T16:10:16;13.10;84.70
24226;DHT22;51462;51.422;5.514;2023-03-11T16:12:42;12.70;84.30
24226;DHT22;51462;51.422;5.514;2023-03-11T16:15:22;11.80;91.60
24226;DHT22;51462;51.422;5.514;2023-03-11T16:17:50;12.10;91.30
24226;DHT22;51462;51.422;5.514;2023-03-11T16:20:20;12.70;92.10
24226;DHT22;51462;51.422;5.514;2023-03-11T16:22:48;11.80;89.30
24226;DHT22;51462;51.422;5.514;2023-03-11T16:25:20;11.80;92.10
24226;DHT22;51462;51.422;5.514;2023-03-11T16:27:48;12.30;91.80
24226;DHT22;51462;51.422;5.514;2023-03-11T16:30:14;12.00;89.70
24226;DHT22;51462;51.422;5.514;2023-03-11T16:32:41;12.00;90.70
24226;DHT22;51462;51.422;5.514;2023-03-11T16:35:07;11.60;87.70
24226;DHT22;51462;51.422;5.514;2023-03-11T16:37:33;11.60;90.00
24226;DHT22;51462;51.422;5.514;2023-03-11T16:39:58;11.80;94.30
24226;DHT22;51462;51.422;5.514;2023-03-11T16:42:24;11.30;90.70
24226;DHT22;51462;51.422;5.514;2023-03-11T16:44:50;11.20;96.70
24226;DHT22;51462;51.422;5.514;2023-03-11T16:47:15;11.10;94.60
24226;DHT22;51462;51.422;5.514;2023-03-11T16:49:41;10.40;92.20
24226;DHT22;51462;51.422;5.514;2023-03-11T16:52:06;10.30;92.00
24226;DHT22;51462;51.422;5.514;2023-03-11T16:54:32;10.00;90.90
24226;DHT22;51462;51.422;5.514;2023-03-11T16:56:59;9.70;91.20
24226;DHT22;51462;51.422;5.514;2023-03-11T16:59:24;9.80;93.10
24226;DHT22;51462;51.422;5.514;2023-03-11T17:01:50;10.00;92.90
24226;DHT22;51462;51.422;5.514;2023-03-11T17:04:16;9.80;94.70
24226;DHT22;51462;51.422;5.514;2023-03-11T17:06:41;9.90;94.60
24226;DHT22;51462;51.422;5.514;2023-03-11T17:09:07;9.90;93.90
24226;DHT22;51462;51.422;5.514;2023-03-11T17:11:32;9.80;99.90
24226;DHT22;51462;51.422;5.514;2023-03-11T17:13:58;9.80;96.80
24226;DHT22;51462;51.422;5.514;2023-03-11T17:16:24;9.60;98.70
24226;DHT22;51462;51.422;5.514;2023-03-11T17:18:49;10.20;99.90
24226;DHT22;51462;51.422;5.514;2023-03-11T17:21:16;10.10;99.90
24226;DHT22;51462;51.422;5.514;2023-03-11T17:23:42;9.70;99.90
24226;DHT22;51462;51.422;5.514;2023-03-11T17:26:14;9.40;99.90
24226;DHT22;51462;51.422;5.514;2023-03-11T17:28:40;9.10;99.90
24226;DHT22;51462;51.422;5.514;2023-03-11T17:31:11;9.30;99.90
24226;DHT22;51462;51.422;5.514;2023-03-11T17:33:37;9.40;99.90
24226;DHT22;51462;51.422;5.514;2023-03-11T17:36:05;8.90;99.90
24226;DHT22;51462;51.422;5.514;2023-03-11T17:38:31;8.80;99.90
24226;DHT22;51462;51.422;5.514;2023-03-11T17:40:56;8.70;99.90
24226;DHT22;51462;51.422;5.514;2023-03-11T17:43:22;8.60;99.90
24226;DHT22;51462;51.422;5.514;2023-03-11T17:45:48;8.40;99.90
24226;DHT22;51462;51.422;5.514;2023-03-11T17:48:14;8.30;99.90
24226;DHT22;51462;51.422;5.514;2023-03-11T17:50:39;8.30;99.90
24226;DHT22;51462;51.422;5.514;2023-03-11T17:53:05;8.10;99.90